createdAt,value
2022-12-27T00:02:02.013Z,4.85
2022-12-27T00:04:28.763Z,4.85
2022-12-27T00:06:58.827Z,4.91
2022-12-27T00:09:25.431Z,4.87
2022-12-27T00:11:57.968Z,4.82
2022-12-27T00:14:26.503Z,4.85
2022-12-27T00:16:53.135Z,4.85
2022-12-27T00:19:25.674Z,4.79
2022-12-27T00:21:52.304Z,4.75
2022-12-27T00:24:24.585Z,4.63
2022-12-27T00:26:51.578Z,4.58
2022-12-27T00:29:21.032Z,4.50
2022-12-27T00:31:48.273Z,4.43
2022-12-27T00:34:14.922Z,4.39
2022-12-27T00:36:44.322Z,4.39
2022-12-27T00:39:12.099Z,4.31
2022-12-27T00:41:46.221Z,4.24
2022-12-27T00:44:12.835Z,4.12
2022-12-27T00:46:42.459Z,4.09
2022-12-27T00:49:12.006Z,4.01
2022-12-27T00:51:39.555Z,3.90
2022-12-27T00:54:08.185Z,3.94
2022-12-27T00:56:37.677Z,3.88
2022-12-27T00:59:15.174Z,3.86
2022-12-27T01:01:44.680Z,3.79
2022-12-27T01:04:14.615Z,3.78
2022-12-27T01:06:42.282Z,3.67
2022-12-27T01:09:11.337Z,3.62
2022-12-27T01:11:43.035Z,3.61
2022-12-27T01:14:13.395Z,3.55
2022-12-27T01:16:44.643Z,3.45
2022-12-27T01:19:11.321Z,3.43
2022-12-27T01:21:44.127Z,3.35
2022-12-27T01:24:10.720Z,3.34
2022-12-27T01:26:37.389Z,3.31
2022-12-27T01:29:04.017Z,3.28
2022-12-27T01:31:31.230Z,3.22
2022-12-27T01:33:59.245Z,3.18
2022-12-27T01:36:27.625Z,3.14
2022-12-27T01:38:54.356Z,3.06
2022-12-27T01:41:44.648Z,3.02
2022-12-27T01:44:50.863Z,2.96
2022-12-27T01:47:29.735Z,2.90
2022-12-27T01:50:18.032Z,2.85
2022-12-27T01:53:03.672Z,2.76
2022-12-27T01:55:35.162Z,2.66
2022-12-27T01:58:13.870Z,2.65
2022-12-27T02:00:46.420Z,2.65
2022-12-27T02:03:21.912Z,2.60
2022-12-27T02:05:49.266Z,2.53
2022-12-27T02:08:53.857Z,2.47
2022-12-27T02:11:44.343Z,2.41
2022-12-27T02:14:13.068Z,2.37
2022-12-27T02:16:44.415Z,2.32
2022-12-27T02:19:42.106Z,2.32
2022-12-27T02:22:31.536Z,2.29
2022-12-27T02:25:19.691Z,2.35
2022-12-27T02:28:27.937Z,2.23
2022-12-27T02:31:04.188Z,2.13
2022-12-27T02:33:42.200Z,2.08
2022-12-27T02:36:13.375Z,2.07
2022-12-27T02:38:48.324Z,2.02
2022-12-27T02:41:34.643Z,1.98
2022-12-27T02:44:20.276Z,1.88
2022-12-27T02:47:06.923Z,1.80
2022-12-27T02:49:54.860Z,1.74
2022-12-27T02:53:04.585Z,1.65
2022-12-27T02:56:25.657Z,1.59
2022-12-27T02:59:23.172Z,1.58
2022-12-27T03:02:18.387Z,1.60
2022-12-27T03:05:24.526Z,1.57
2022-12-27T03:07:53.800Z,1.54
2022-12-27T03:11:15.772Z,1.52
2022-12-27T03:14:14.442Z,1.49
2022-12-27T03:16:58.865Z,1.48
2022-12-27T03:20:08.395Z,1.48
2022-12-27T03:22:56.627Z,1.61
2022-12-27T03:25:30.267Z,1.66
2022-12-27T03:28:33.967Z,1.86
2022-12-27T03:31:24.695Z,2.01
2022-12-27T03:34:07.506Z,2.17
2022-12-27T03:36:56.866Z,2.20
2022-12-27T03:39:34.796Z,2.27
2022-12-27T03:42:25.843Z,2.32
2022-12-27T03:44:52.935Z,2.26
2022-12-27T03:47:40.583Z,2.23
2022-12-27T03:50:22.157Z,2.18
2022-12-27T03:53:29.790Z,2.15
2022-12-27T03:56:00.736Z,2.14
2022-12-27T03:58:28.581Z,2.16
2022-12-27T04:00:55.057Z,2.12
2022-12-27T04:03:29.589Z,2.13
2022-12-27T04:05:59.601Z,2.14
2022-12-27T04:08:45.065Z,2.15
2022-12-27T04:11:30.196Z,2.12
2022-12-27T04:14:18.938Z,2.09
2022-12-27T04:17:04.185Z,2.08
2022-12-27T04:19:52.301Z,2.07
2022-12-27T04:22:46.562Z,2.07
2022-12-27T04:25:35.477Z,2.03
2022-12-27T04:28:20.754Z,2.02
2022-12-27T04:31:21.157Z,2.03
2022-12-27T04:34:06.041Z,1.93
2022-12-27T04:36:32.805Z,1.88
2022-12-27T04:39:05.591Z,1.82
2022-12-27T04:41:51.721Z,1.77
2022-12-27T04:44:40.896Z,1.73
2022-12-27T04:47:35.717Z,1.68
2022-12-27T04:50:21.769Z,1.66
2022-12-27T04:53:07.401Z,1.61
2022-12-27T04:55:35.340Z,1.62
2022-12-27T04:58:01.963Z,1.64
2022-12-27T05:00:52.464Z,1.66
2022-12-27T05:03:25.950Z,1.64
2022-12-27T05:05:53.710Z,1.64
2022-12-27T05:08:45.806Z,1.66
2022-12-27T05:11:34.175Z,1.71
2022-12-27T05:14:02.958Z,1.68
2022-12-27T05:16:42.424Z,1.69
2022-12-27T05:19:11.555Z,1.75
2022-12-27T05:22:04.607Z,1.82
2022-12-27T05:24:50.832Z,1.90
2022-12-27T05:27:18.258Z,1.94
2022-12-27T05:29:46.578Z,1.94
2022-12-27T05:32:16.167Z,1.91
2022-12-27T05:34:42.776Z,1.95
2022-12-27T05:37:09.566Z,1.89
2022-12-27T05:39:41.985Z,1.85
2022-12-27T05:42:12.426Z,1.86
2022-12-27T05:44:40.094Z,1.86
2022-12-27T05:47:16.873Z,1.90
2022-12-27T05:49:45.764Z,1.94
2022-12-27T05:52:12.877Z,1.93
2022-12-27T05:54:40.381Z,1.95
2022-12-27T05:57:07.006Z,1.95
2022-12-27T05:59:33.607Z,1.98
2022-12-27T06:02:15.735Z,2.02
2022-12-27T06:04:42.470Z,2.10
2022-12-27T06:07:11.990Z,2.14
2022-12-27T06:09:38.599Z,2.14
2022-12-27T06:12:05.505Z,2.19
2022-12-27T06:14:35.421Z,2.20
2022-12-27T06:17:01.989Z,2.20
2022-12-27T06:19:28.583Z,2.17
2022-12-27T06:22:01.743Z,2.10
2022-12-27T06:24:28.487Z,2.02
2022-12-27T06:26:55.126Z,2.00
2022-12-27T06:29:21.727Z,1.94
2022-12-27T06:31:48.575Z,1.85
2022-12-27T06:34:18.377Z,1.80
2022-12-27T06:36:50.248Z,1.77
2022-12-27T06:39:18.462Z,1.72
2022-12-27T06:41:45.289Z,1.70
2022-12-27T06:44:11.947Z,1.66
2022-12-27T06:46:38.818Z,1.71
2022-12-27T06:49:05.431Z,1.63
2022-12-27T06:51:36.804Z,1.58
2022-12-27T06:54:03.526Z,1.54
2022-12-27T06:56:30.187Z,1.54
2022-12-27T06:58:56.876Z,1.61
2022-12-27T07:01:28.883Z,1.64
2022-12-27T07:03:58.406Z,1.63
2022-12-27T07:06:30.789Z,1.73
2022-12-27T07:09:00.154Z,1.74
2022-12-27T07:11:26.855Z,1.75
2022-12-27T07:13:55.771Z,1.78
2022-12-27T07:16:27.773Z,1.82
2022-12-27T07:18:55.736Z,1.88
2022-12-27T07:21:23.944Z,1.93
2022-12-27T07:23:54.084Z,1.96
2022-12-27T07:26:23.503Z,2.01
2022-12-27T07:28:53.707Z,2.05
2022-12-27T07:31:23.301Z,2.08
2022-12-27T07:33:50.707Z,2.15
2022-12-27T07:36:24.208Z,2.18
2022-12-27T07:38:50.957Z,2.21
2022-12-27T07:41:18.002Z,2.27
2022-12-27T07:43:45.219Z,2.30
2022-12-27T07:46:19.051Z,2.37
2022-12-27T07:48:47.394Z,2.39
2022-12-27T07:51:15.409Z,2.36
2022-12-27T07:53:42.116Z,2.40
2022-12-27T07:56:11.204Z,2.40
2022-12-27T07:58:43.311Z,2.38
2022-12-27T08:01:20.500Z,2.35
2022-12-27T08:03:47.309Z,2.39
2022-12-27T08:06:23.488Z,2.49
2022-12-27T08:08:51.926Z,2.54
2022-12-27T08:11:19.554Z,2.58
2022-12-27T08:13:46.970Z,2.59
2022-12-27T08:16:20.191Z,2.59
2022-12-27T08:18:47.648Z,2.60
2022-12-27T08:21:17.387Z,2.61
2022-12-27T08:23:44.354Z,2.59
2022-12-27T08:26:11.428Z,2.62
2022-12-27T08:28:38.731Z,2.66
2022-12-27T08:31:08.396Z,2.66
2022-12-27T08:33:35.920Z,2.69
2022-12-27T08:36:53.719Z,2.73
2022-12-27T08:39:00.528Z,2.79
2022-12-27T08:41:27.218Z,2.83
2022-12-27T08:43:53.858Z,2.85
2022-12-27T08:46:25.409Z,2.87
2022-12-27T08:48:52.119Z,2.93
2022-12-27T08:51:31.332Z,2.96
2022-12-27T08:54:02.385Z,2.98
2022-12-27T08:56:29.770Z,3.02
2022-12-27T08:58:56.416Z,3.05
2022-12-27T09:01:23.203Z,3.05
2022-12-27T09:03:49.882Z,3.07
2022-12-27T09:06:22.381Z,3.11
2022-12-27T09:08:51.195Z,3.13
2022-12-27T09:11:19.156Z,3.14
2022-12-27T09:13:46.612Z,3.15
2022-12-27T09:16:19.263Z,3.16
2022-12-27T09:18:49.614Z,3.15
2022-12-27T09:21:17.549Z,3.19
2022-12-27T09:23:47.561Z,3.25
2022-12-27T09:26:17.446Z,3.33
2022-12-27T09:28:47.897Z,3.47
2022-12-27T09:31:15.521Z,3.59
2022-12-27T09:33:42.413Z,3.73
2022-12-27T09:36:14.338Z,3.77
2022-12-27T09:38:42.657Z,3.74
2022-12-27T09:42:25.634Z,3.73
2022-12-27T09:44:21.823Z,3.77
2022-12-27T09:47:03.414Z,3.83
2022-12-27T09:49:40.068Z,3.88
2022-12-27T09:52:25.879Z,3.83
2022-12-27T09:55:23.371Z,3.86
2022-12-27T09:57:59.160Z,3.90
2022-12-27T10:00:34.488Z,3.95
2022-12-27T10:03:06.070Z,4.13
2022-12-27T10:05:35.206Z,4.26
2022-12-27T10:08:37.365Z,4.44
2022-12-27T10:11:39.205Z,4.58
2022-12-27T10:14:08.692Z,4.75
2022-12-27T10:16:35.398Z,4.81
2022-12-27T10:19:14.258Z,4.75
2022-12-27T10:22:13.028Z,4.81
2022-12-27T10:24:56.442Z,4.83
2022-12-27T10:27:26.274Z,4.90
2022-12-27T10:29:57.466Z,4.98
2022-12-27T10:32:27.134Z,4.99
2022-12-27T10:35:02.845Z,5.01
2022-12-27T10:37:29.854Z,5.02
2022-12-27T10:40:07.535Z,5.00
2022-12-27T10:42:44.205Z,5.05
2022-12-27T10:45:33.521Z,5.22
2022-12-27T10:48:12.287Z,5.21
2022-12-27T10:50:43.491Z,5.30
2022-12-27T10:53:52.665Z,5.33
2022-12-27T10:56:29.621Z,5.39
2022-12-27T10:59:18.693Z,5.35
2022-12-27T11:01:47.240Z,5.33
2022-12-27T11:04:20.031Z,5.24
2022-12-27T11:06:51.849Z,5.19
2022-12-27T11:09:33.577Z,5.25
2022-12-27T11:12:26.054Z,5.31
2022-12-27T11:14:57.679Z,5.37
2022-12-27T11:17:44.415Z,5.38
2022-12-27T11:20:39.985Z,5.43
2022-12-27T11:23:15.493Z,5.42
2022-12-27T11:26:06.580Z,5.42
2022-12-27T11:28:47.946Z,5.39
2022-12-27T11:31:18.226Z,5.45
2022-12-27T11:33:53.666Z,5.49
2022-12-27T11:36:34.272Z,5.47
2022-12-27T11:39:01.982Z,5.45
2022-12-27T11:41:37.726Z,5.45
2022-12-27T11:44:25.990Z,5.43
2022-12-27T11:46:57.154Z,5.43
2022-12-27T11:49:35.986Z,5.42
2022-12-27T11:52:33.818Z,5.39
2022-12-27T11:55:19.044Z,5.33
2022-12-27T11:58:10.476Z,5.33
2022-12-27T12:00:49.864Z,5.34
2022-12-27T12:03:56.407Z,5.37
2022-12-27T12:06:53.898Z,5.39
2022-12-27T12:09:55.271Z,5.47
2022-12-27T12:12:47.118Z,5.49
2022-12-27T12:15:13.713Z,5.47
2022-12-27T12:18:15.718Z,5.46
2022-12-27T12:20:50.323Z,5.46
2022-12-27T12:23:38.184Z,5.44
2022-12-27T12:26:20.352Z,5.45
2022-12-27T12:29:26.248Z,5.48
2022-12-27T12:32:40.591Z,5.43
2022-12-27T12:35:29.497Z,5.45
2022-12-27T12:38:27.718Z,5.44
2022-12-27T12:41:15.829Z,5.47
2022-12-27T12:43:48.611Z,5.51
2022-12-27T12:46:38.854Z,5.51
2022-12-27T12:49:38.408Z,5.54
2022-12-27T12:52:29.185Z,5.51
2022-12-27T12:55:21.353Z,5.55
2022-12-27T12:58:06.521Z,5.59
2022-12-27T13:00:59.242Z,5.61
2022-12-27T13:04:01.176Z,5.65
2022-12-27T13:06:54.621Z,5.72
2022-12-27T13:09:33.538Z,5.68
2022-12-27T13:12:26.409Z,5.71
2022-12-27T13:15:33.465Z,5.79
2022-12-27T13:18:30.821Z,5.71
2022-12-27T13:21:35.683Z,5.73
2022-12-27T13:24:32.131Z,5.75
2022-12-27T13:27:28.832Z,5.84
2022-12-27T13:30:21.703Z,5.84
2022-12-27T13:33:12.891Z,5.84
2022-12-27T13:35:57.791Z,5.89
2022-12-27T13:38:54.232Z,5.95
2022-12-27T13:42:03.903Z,6.02
2022-12-27T13:44:42.755Z,6.04
2022-12-27T13:47:12.634Z,6.06
2022-12-27T13:50:17.646Z,6.08
2022-12-27T13:53:03.877Z,6.01
2022-12-27T13:55:33.459Z,5.99
2022-12-27T13:58:20.446Z,5.98
2022-12-27T14:00:58.735Z,5.88
2022-12-27T14:03:46.213Z,5.81
2022-12-27T14:06:56.347Z,5.80
2022-12-27T14:09:38.430Z,5.80
2022-12-27T14:12:47.654Z,5.81
2022-12-27T14:15:19.328Z,5.82
2022-12-27T14:18:15.423Z,5.75
2022-12-27T14:21:03.733Z,5.74
2022-12-27T14:23:56.480Z,5.70
2022-12-27T14:26:43.377Z,5.58
2022-12-27T14:29:46.624Z,5.43
2022-12-27T14:32:13.158Z,5.28
2022-12-27T14:35:01.416Z,5.11
2022-12-27T14:37:43.033Z,4.95
2022-12-27T14:40:15.452Z,4.85
2022-12-27T14:43:27.002Z,4.76
2022-12-27T14:46:30.866Z,4.60
2022-12-27T14:49:41.634Z,4.48
2022-12-27T14:52:32.078Z,4.39
2022-12-27T14:55:25.023Z,4.27
2022-12-27T14:57:54.766Z,4.15
2022-12-27T15:00:24.141Z,4.08
2022-12-27T15:02:50.875Z,4.02
2022-12-27T15:05:31.126Z,3.90
2022-12-27T15:08:19.674Z,3.77
2022-12-27T15:10:59.272Z,3.71
2022-12-27T15:13:44.081Z,3.66
2022-12-27T15:17:07.724Z,3.56
2022-12-27T15:19:53.047Z,3.45
2022-12-27T15:22:46.495Z,3.38
2022-12-27T15:25:38.289Z,3.35
2022-12-27T15:28:34.191Z,3.29
2022-12-27T15:31:09.521Z,3.25
2022-12-27T15:34:10.243Z,3.14
2022-12-27T15:36:53.881Z,3.04
2022-12-27T15:39:38.552Z,2.97
2022-12-27T15:42:31.607Z,2.91
2022-12-27T15:45:07.530Z,2.84
2022-12-27T15:47:55.823Z,2.80
2022-12-27T15:50:38.721Z,2.75
2022-12-27T15:53:08.416Z,2.69
2022-12-27T15:55:50.454Z,2.60
2022-12-27T15:58:20.493Z,2.51
2022-12-27T16:01:22.148Z,2.44
2022-12-27T16:03:51.287Z,2.37
2022-12-27T16:06:33.357Z,2.35
2022-12-27T16:09:21.571Z,2.32
2022-12-27T16:12:09.719Z,2.33
2022-12-27T16:14:47.111Z,2.29
2022-12-27T16:17:13.749Z,2.25
2022-12-27T16:20:03.089Z,2.22
2022-12-27T16:22:35.490Z,2.19
2022-12-27T16:25:18.709Z,2.22
2022-12-27T16:27:45.575Z,2.19
2022-12-27T16:30:33.945Z,2.15
2022-12-27T16:33:22.225Z,2.12
2022-12-27T16:36:07.201Z,2.09
2022-12-27T16:38:40.549Z,2.08
2022-12-27T16:41:57.950Z,2.04
2022-12-27T16:44:24.515Z,2.01
2022-12-27T16:47:05.753Z,2.00
2022-12-27T16:50:00.104Z,1.98
2022-12-27T16:53:14.958Z,1.95
2022-12-27T16:56:00.171Z,1.95
2022-12-27T16:58:27.247Z,1.89
2022-12-27T17:00:56.561Z,1.90
2022-12-27T17:03:29.928Z,1.88
2022-12-27T17:06:30.513Z,1.81
2022-12-27T17:09:10.751Z,1.81
2022-12-27T17:11:52.736Z,1.74
2022-12-27T17:14:36.266Z,1.67
2022-12-27T17:17:08.912Z,1.64
2022-12-27T17:19:51.910Z,1.61
2022-12-27T17:22:20.579Z,1.56
2022-12-27T17:24:48.981Z,1.53
2022-12-27T17:27:33.959Z,1.50
2022-12-27T17:30:08.157Z,1.44
2022-12-27T17:33:11.616Z,1.40
2022-12-27T17:35:57.668Z,1.40
2022-12-27T17:38:39.288Z,1.37
2022-12-27T17:41:20.669Z,1.33
2022-12-27T17:44:39.156Z,1.28
2022-12-27T17:47:30.195Z,1.27
2022-12-27T17:50:03.024Z,1.24
2022-12-27T17:52:51.951Z,1.18
2022-12-27T17:56:07.467Z,1.07
2022-12-27T17:58:35.021Z,0.96
2022-12-27T18:01:02.915Z,0.83
2022-12-27T18:03:40.757Z,0.72
2022-12-27T18:06:07.809Z,0.68
2022-12-27T18:08:34.657Z,0.75
2022-12-27T18:11:16.698Z,0.71
2022-12-27T18:13:53.973Z,0.73
2022-12-27T18:16:37.436Z,0.80
2022-12-27T18:19:05.689Z,0.92
2022-12-27T18:21:32.534Z,0.99
2022-12-27T18:24:01.510Z,1.07
2022-12-27T18:26:38.400Z,1.07
2022-12-27T18:29:08.465Z,1.04
2022-12-27T18:31:49.802Z,1.11
2022-12-27T18:34:34.943Z,1.08
2022-12-27T18:37:09.389Z,1.07
2022-12-27T18:39:42.081Z,1.06
2022-12-27T18:42:30.989Z,1.03
2022-12-27T18:45:20.504Z,1.00
2022-12-27T18:47:49.472Z,1.02
2022-12-27T18:50:19.825Z,0.99
2022-12-27T18:52:52.900Z,0.98
2022-12-27T18:55:31.996Z,0.95
2022-12-27T18:58:20.846Z,0.96
2022-12-27T19:01:05.446Z,0.92
2022-12-27T19:03:41.265Z,0.88
2022-12-27T19:06:13.504Z,0.84
2022-12-27T19:08:51.722Z,0.77
2022-12-27T19:11:26.455Z,0.69
2022-12-27T19:13:56.847Z,0.65
2022-12-27T19:16:34.607Z,0.59
2022-12-27T19:19:18.470Z,0.53
2022-12-27T19:21:45.214Z,0.49
2022-12-27T19:24:23.997Z,0.40
2022-12-27T19:26:51.421Z,0.33
2022-12-27T19:29:20.721Z,0.24
2022-12-27T19:31:56.511Z,0.49
2022-12-27T19:34:26.548Z,0.27
2022-12-27T19:36:55.903Z,0.15
2022-12-27T19:39:36.468Z,0.04
2022-12-27T19:42:16.813Z,-0.04
2022-12-27T19:44:43.544Z,-0.11
2022-12-27T19:47:13.661Z,-0.18
2022-12-27T19:49:42.005Z,-0.24
2022-12-27T19:52:23.955Z,-0.32
2022-12-27T19:54:56.910Z,-0.42
2022-12-27T19:57:29.233Z,-0.46
2022-12-27T19:59:56.050Z,-0.51
2022-12-27T20:02:23.516Z,-0.59
2022-12-27T20:04:50.368Z,-0.63
2022-12-27T20:07:25.594Z,-0.70
2022-12-27T20:09:52.282Z,-0.72
2022-12-27T20:12:21.843Z,-0.72
2022-12-27T20:14:48.822Z,-0.69
2022-12-27T20:17:15.611Z,-0.73
2022-12-27T20:19:42.315Z,-0.69
2022-12-27T20:22:09.106Z,-0.64
2022-12-27T20:24:37.095Z,-0.60
2022-12-27T20:27:05.053Z,-0.49
2022-12-27T20:29:34.346Z,-0.32
2022-12-27T20:32:01.060Z,-0.09
2022-12-27T20:34:30.881Z,0.07
2022-12-27T20:36:58.298Z,0.13
2022-12-27T20:39:25.104Z,0.22
2022-12-27T20:41:51.724Z,0.29
2022-12-27T20:44:19.304Z,0.38
2022-12-27T20:46:47.622Z,0.40
2022-12-27T20:49:17.078Z,0.43
2022-12-27T20:51:43.729Z,0.48
2022-12-27T20:54:12.377Z,0.44
2022-12-27T20:56:39.015Z,0.45
2022-12-27T20:59:10.190Z,0.42
2022-12-27T21:01:54.806Z,0.44
2022-12-27T21:04:23.495Z,0.44
2022-12-27T21:06:50.128Z,0.44
2022-12-27T21:09:17.051Z,0.45
2022-12-27T21:11:43.764Z,0.48
2022-12-27T21:14:11.906Z,0.50
2022-12-27T21:16:41.611Z,0.57
2022-12-27T21:19:08.277Z,0.73
2022-12-27T21:21:37.467Z,0.79
2022-12-27T21:24:05.707Z,0.96
2022-12-27T21:26:36.965Z,1.04
2022-12-27T21:29:05.847Z,1.07
2022-12-27T21:31:35.751Z,1.12
2022-12-27T21:34:03.313Z,1.15
2022-12-27T21:36:35.204Z,1.23
2022-12-27T21:39:04.142Z,1.25
2022-12-27T21:41:33.320Z,1.34
2022-12-27T21:44:00.567Z,1.37
2022-12-27T21:46:30.060Z,1.42
2022-12-27T21:49:17.119Z,1.51
2022-12-27T21:51:46.715Z,1.59
2022-12-27T21:54:14.066Z,1.65
2022-12-27T21:56:41.177Z,1.71
2022-12-27T21:59:13.963Z,1.78
2022-12-27T22:01:49.668Z,1.84
2022-12-27T22:04:17.778Z,1.86
2022-12-27T22:06:47.207Z,1.98
2022-12-27T22:09:24.083Z,1.98
2022-12-27T22:11:50.802Z,2.05
2022-12-27T22:14:25.063Z,2.07
2022-12-27T22:16:52.219Z,2.12
2022-12-27T22:19:22.572Z,2.18
2022-12-27T22:21:52.175Z,2.23
2022-12-27T22:24:20.016Z,2.24
2022-12-27T22:26:48.778Z,2.26
2022-12-27T22:29:15.668Z,2.28
2022-12-27T22:31:42.970Z,2.27
2022-12-27T22:34:09.751Z,2.29
2022-12-27T22:36:38.956Z,2.27
2022-12-27T22:39:05.927Z,2.28
2022-12-27T22:41:35.334Z,2.25
2022-12-27T22:44:08.120Z,2.26
2022-12-27T22:49:22.121Z,2.21
2022-12-27T22:51:48.785Z,2.21
2022-12-27T22:54:15.525Z,2.23
2022-12-27T22:56:42.895Z,2.19
2022-12-27T22:59:12.315Z,2.17
2022-12-27T23:01:40.467Z,2.13
2022-12-27T23:04:08.772Z,2.08
2022-12-27T23:06:36.524Z,2.15
2022-12-27T23:09:09.855Z,2.15
2022-12-27T23:11:40.860Z,2.21
2022-12-27T23:14:16.913Z,2.20
2022-12-27T23:16:47.928Z,2.21
2022-12-27T23:19:22.611Z,2.30
2022-12-27T23:21:49.985Z,2.37
2022-12-27T23:24:17.539Z,2.44
2022-12-27T23:26:44.255Z,2.47
2022-12-27T23:29:21.109Z,2.51
2022-12-27T23:31:54.839Z,2.54
2022-12-27T23:34:27.734Z,2.58
2022-12-27T23:36:55.200Z,2.66
2022-12-27T23:39:33.561Z,2.69
2022-12-27T23:42:00.209Z,2.77
2022-12-27T23:44:33.630Z,2.81
2022-12-27T23:47:02.132Z,2.83
2022-12-27T23:49:34.919Z,2.83
2022-12-27T23:52:01.655Z,2.88
2022-12-27T23:54:31.396Z,2.92
2022-12-27T23:56:58.104Z,2.92
2022-12-27T23:59:30.618Z,2.94
